LFLB/CMF METAR and TAF weather

Enter ICAO airport designator
Station Type Date Time Source
LFLB METAR 2019/12/16 03:30 UTC NOAA

LFLB 160330Z AUTO VRB03KT CAVOK 04/03 Q1012


Station Type Date Time Source
LFLB Decoded METAR 2019/12/16 03:30 UTC NOAA

Chambery / Aix-Les-Bains, France (LFLB) 45-39N 005-53E 239M
Dec 15, 2019 - 10:30 PM EST / 2019.12.16 0330 UTC
Wind: Variable at 3 MPH (3 KT):0
Visibility: greater than 7 mile(s):0
Temperature: 39 F (4 C)
Dew Point: 37 F (3 C)
Relative Humidity: 93%
Pressure (altimeter): 29.88 in. Hg (1012 hPa)
ob: LFLB 160330Z AUTO VRB03KT CAVOK 04/03 Q1012
cycle: 3

Station Type Date Time Source
LFLB TAF 2019/12/15 22:05 UTC NOAA

TAF LFLB 152259Z 1522/1618 CNL

Example: see airport list